Thursday, January 17, 2019, 8:25 PM EST

KW99, Petersburg, Grant County Airport

Location: Petersburg, WV, United States Lat: 38.983
Local Time: 8:25 PM EST ( 1:25 GMT) Lon: -79.133
Time Zone: US/Eastern Elev: 961 ft

Show me the last for .
Show Coded

Time T Td Feel RH Dir Speed Gust Alt SLP Vis Weather Sky Remarks
2019-01-17 20:15 33 27 29 78 100° 5 - 30.10 - 10 BKN065 OVC080 None
2019-01-17 19:55 33 28 28 79 120° 6 - 30.10 - 10 SCT065 OVC080 None
2019-01-17 19:35 33 28 29 79 130° 5 - 30.11 - 10 BKN065 OVC080 None
2019-01-17 19:15 33 28 30 83 110° 3 - 30.11 - 10 OVC065 None
2019-01-17 18:55 33 28 - 82 - Calm - 30.11 - 10 OVC065 6-hr Min Temp (7pm): 32.4°F
6-hr Max Temp (7pm): 35.6°F
2019-01-17 18:35 33 28 - 82 - Calm - 30.11 - 10 OVC065 None
2019-01-17 18:15 33 28 30 82 130° 3 - 30.11 - 10 OVC065 None
2019-01-17 17:55 33 28 27 83 130° 6 - 30.12 - 10 SCT015 BKN065 OVC080 None
2019-01-17 17:35 33 29 26 85 120° 7 - 30.12 - 10 BKN017 BKN023 OVC080 None
2019-01-17 17:15 33 29 28 87 120° 5 - 30.13 - 4 -SN SCT017 BKN024 OVC080 None
2019-01-17 16:55 33 29 27 87 120° 6 - 30.13 - 5 -SN SCT019 OVC026 None
2019-01-17 16:35 33 29 27 86 120° 6 - 30.14 - 4 -SN BKN026 BKN039 OVC050 None
2019-01-17 16:15 32 29 27 88 130° 6 - 30.14 - 4 -SN SCT018 BKN025 OVC060 None
2019-01-17 15:55 34 28 28 80 120° 7 - 30.15 - 3 -SN BKN023 OVC027 None
2019-01-17 15:35 34 28 27 78 140° 8 - 30.14 - 10 OVC027 None
2019-01-17 15:15 34 28 26 77 130° 10 - 30.14 - 10 OVC027 None
2019-01-17 14:55 35 28 29 76 130° 7 - 30.14 - 10 OVC027 None
2019-01-17 14:35 35 28 30 73 130° 6 - 30.14 - 10 OVC027 None
2019-01-17 14:15 36 27 29 71 150° 8 - 30.14 - 10 OVC027 None
2019-01-17 13:55 35 28 31 74 160° 5 - 30.16 - 10 OVC027 None
2019-01-17 13:35 34 27 - 74 - Calm - 30.16 - 10 OVC029 None
2019-01-17 13:15 34 27 - 74 - Calm - 30.17 - 10 OVC029 None
2019-01-17 12:55 34 26 - 73 - Calm - 30.18 - 10 OVC031 6-hr Precip Total (1pm): 0.01"
6-hr Min Temp (1pm): 25.7°F
6-hr Max Temp (1pm): 34.3°F
2019-01-17 12:35 34 26 - 70 - Calm - 30.20 - 10 OVC031 None
2019-01-17 12:15 34 27 - 75 - Calm - 30.22 - 10 OVC033 None
2019-01-17 11:55 33 26 - 75 - Calm - 30.24 - 10 OVC033 None
2019-01-17 11:35 33 26 - 75 - Calm - 30.25 - 10 OVC033 None
2019-01-17 11:15 33 27 - 77 - Calm - 30.26 - 10 OVC033 None
2019-01-17 10:55 32 27 - 80 - Calm - 30.27 - 10 OVC035 1-hr Precip Total: 0.01"
2019-01-17 10:35 31 27 - 82 - Calm - 30.27 - 10 OVC039 None
2019-01-17 10:15 30 27 - 86 - Calm - 30.28 - 7 OVC037 None
2019-01-17 09:55 29 26 - 88 - Calm - 30.28 - 7 OVC037 None
2019-01-17 09:43 28 27 - 92 - Calm - 30.28 - 7 BKN037 None
2019-01-17 08:41 27 25 - 92 - Calm - 30.27 - 7 CLR None
2019-01-17 08:03 27 25 - 92 - Calm - 30.29 - 7 SCT037 None
2019-01-17 07:15 29 26 - 90 - Calm - 30.28 - 10 OVC037 None
2019-01-17 06:55 29 27 - 88 - Calm - 30.27 - 10 OVC037 24-hr Precip Total (7am): 0.07"
6-hr Min Temp (7am): 27.7°F
6-hr Max Temp (7am): 30.2°F
2019-01-17 06:35 30 27 - 88 - Calm - 30.27 - 10 OVC037 None
2019-01-17 06:15 30 26 - 86 - Calm - 30.28 - 10 OVC037 None
2019-01-17 05:55 30 27 - 88 - Calm - 30.28 - 10 OVC037 None
2019-01-17 05:35 30 27 - 87 - Calm - 30.28 - 10 OVC037 None
2019-01-17 05:15 30 27 - 90 - Calm - 30.27 - 10 OVC037 None
2019-01-17 04:55 30 27 - 86 - Calm - 30.27 - 10 OVC037 None
2019-01-17 04:35 29 26 - 88 - Calm - 30.28 - 10 OVC037 None
2019-01-17 04:15 29 27 - 89 - Calm - 30.27 - 10 OVC037 None
2019-01-17 03:55 29 27 - 88 - Calm - 30.28 - 10 OVC037 None
2019-01-17 03:35 29 27 - 89 - Calm - 30.29 - 10 OVC037 None
2019-01-17 03:15 30 26 - 86 - Calm - 30.29 - 10 OVC039 None
2019-01-17 02:55 30 26 - 86 - Calm - 30.29 - 10 OVC039 None
2019-01-17 02:35 29 27 - 88 - Calm - 30.29 - 10 OVC039 None
2019-01-17 02:22 30 27 - 86 - Calm - 30.30 - 10 BKN039 None
2019-01-17 01:02 28 27 - 92 - Calm - 30.27 - 10 CLR None
2019-01-17 00:44 30 27 - 86 - Calm - 30.27 - 10 SCT038 None
2019-01-16 23:30 33 27 - 79 - Calm - 30.28 - 10 OVC036 None
2019-01-16 23:15 34 26 - 72 - Calm - 30.28 - 10 OVC036 None
2019-01-16 22:55 35 25 32 66 340° 3 - 30.28 - 10 OVC036 None
2019-01-16 22:35 34 26 - 70 - Calm - 30.28 - 10 OVC036 None
2019-01-16 22:15 34 26 28 71 310° 7 - 30.27 - 10 OVC039 None
2019-01-16 21:55 34 27 30 73 320° 5 - 30.27 - 10 OVC041 None
2019-01-16 21:35 34 27 30 73 310° 5 - 30.26 - 10 OVC039 None
2019-01-16 21:15 35 27 32 71 320° 3 - 30.26 - 10 BKN037 None
2019-01-16 20:55 35 26 29 69 310° 7 - 30.25 - 10 OVC037 None
2019-01-16 20:35 35 26 30 69 320° 6 - 30.25 - 10 SCT033 OVC039 None

Support USWX by starting your Amazon purchase here.